| time (UTC) | temp C | wind direction | speed KPH | gust KPH | rain 1hr cm | rain 24hr cm | rain mn cm | humidity % | barometer mb |
| 20260505200605 | 25 | 3 | 1.6 | 11.3 | 0.00 | 0.00 | 0.00 | 52 | 1014.9 |
| 20260505200404 | 25 | 333 | 1.6 | 14.5 | 0.00 | 0.00 | 0.00 | 46 | 1014.8 |
| 20260505200304 | 25 | 332 | 1.6 | 14.5 | 0.00 | 0.00 | 0.00 | 53 | 1014.9 |
| 20260505200204 | 25 | 334 | 1.6 | 14.5 | 0.00 | 0.00 | 0.00 | 48 | 1014.7 |
| 20260505200104 | 24 | 329 | 1.6 | 14.5 | 0.00 | 0.00 | 0.00 | 49 | 1014.9 |
| 20260505200004 | 25 | 329 | 1.6 | 14.5 | 0.00 | 0.00 | 0.00 | 48 | 1014.9 |
| 20260505195804 | 25 | 297 | 1.6 | 14.5 | 0.00 | 0.00 | 0.00 | 42 | 1014.8 |
| 20260505195704 | 25 | 281 | 1.6 | 16.1 | 0.00 | 0.00 | 0.00 | 44 | 1014.7 |
| 20260505195404 | 25 | 230 | 1.6 | 16.1 | 0.00 | 0.00 | 0.00 | 51 | 1014.8 |
| 20260505195305 | 25 | 220 | 1.6 | 16.1 | 0.00 | 0.00 | 0.00 | 52 | 1014.8 |
| 20260505195104 | 25 | 223 | 1.6 | 16.1 | 0.00 | 0.00 | 0.00 | 48 | 1014.8 |
| 20260505194304 | 25 | 61 | 1.6 | 12.9 | 0.00 | 0.00 | 0.00 | 53 | 1014.9 |
| 20260505194204 | 24 | 59 | 1.6 | 12.9 | 0.00 | 0.00 | 0.00 | 50 | 1014.9 |
| 20260505194104 | 24 | 62 | 1.6 | 12.9 | 0.00 | 0.00 | 0.00 | 43 | 1014.9 |
| 20260505193904 | 24 | 69 | 1.6 | 11.3 | 0.00 | 0.00 | 0.00 | 47 | 1014.9 |
| 20260505193604 | 24 | 85 | 1.6 | 11.3 | 0.00 | 0.00 | 0.00 | 48 | 1015.0 |
| 20260505193504 | 23 | 84 | 1.6 | 11.3 | 0.00 | 0.00 | 0.00 | 44 | 1014.9 |
| 20260505193304 | 24 | 74 | 1.6 | 11.3 | 0.00 | 0.00 | 0.00 | 44 | 1015.0 |
| 20260505193203 | 24 | 78 | 1.6 | 11.3 | 0.00 | 0.00 | 0.00 | 46 | 1015.1 |
| 20260505193104 | 23 | 74 | 1.6 | 11.3 | 0.00 | 0.00 | 0.00 | 49 | 1015.1 |
| 20260505193004 | 23 | 72 | 1.6 | 11.3 | 0.00 | 0.00 | 0.00 | 48 | 1015.1 |
| 20260505192904 | 23 | 348 | 1.6 | 11.3 | 0.00 | 0.00 | 0.00 | 46 | 1015.1 |
| 20260505192704 | 23 | 340 | 1.6 | 11.3 | 0.00 | 0.00 | 0.00 | 46 | 1015.1 |
| 20260505192504 | 23 | 340 | 1.6 | 11.3 | 0.00 | 0.00 | 0.00 | 47 | 1015.2 |
| 20260505192404 | 23 | 343 | 1.6 | 11.3 | 0.00 | 0.00 | 0.00 | 44 | 1015.1 |
| 20260505192305 | 23 | 330 | 1.6 | 11.3 | 0.00 | 0.00 | 0.00 | 50 | 1015.2 |
| 20260505192203 | 23 | 343 | 1.6 | 11.3 | 0.00 | 0.00 | 0.00 | 41 | 1015.1 |
| 20260505191904 | 23 | 51 | 1.6 | 9.7 | 0.00 | 0.00 | 0.00 | 45 | 1015.2 |
| 20260505191705 | 23 | 70 | 1.6 | 9.7 | 0.00 | 0.00 | 0.00 | 41 | 1015.3 |
| 20260505191403 | 22 | 57 | 1.6 | 6.4 | 0.00 | 0.00 | 0.00 | 53 | 1015.4 |
| 20260505191203 | 22 | 317 | 3.2 | 4.8 | 0.00 | 0.00 | 0.00 | 46 | 1015.3 |
| 20260505191104 | 22 | 267 | 3.2 | 11.3 | 0.00 | 0.00 | 0.00 | 50 | 1015.4 |
| 20260505190903 | 22 | 255 | 3.2 | 11.3 | 0.00 | 0.00 | 0.00 | 47 | 1015.4 |
| 20260505190503 | 22 | 257 | 1.6 | 11.3 | 0.00 | 0.00 | 0.00 | 45 | 1015.5 |
| 20260505190004 | 23 | 337 | 1.6 | 12.9 | 0.00 | 0.00 | 0.00 | 42 | 1015.7 |
| 20260505185904 | 23 | 354 | 1.6 | 12.9 | 0.00 | 0.00 | 0.00 | 39 | 1015.6 |
| 20260505185504 | 23 | 305 | 1.6 | 12.9 | 0.00 | 0.00 | 0.00 | 45 | 1015.6 |
| 20260505185305 | 23 | 303 | 1.6 | 11.3 | 0.00 | 0.00 | 0.00 | 45 | 1015.6 |
| 20260505185003 | 23 | 348 | 1.6 | 11.3 | 0.00 | 0.00 | 0.00 | 48 | 1015.8 |
| 20260505184604 | 23 | 343 | 1.6 | 11.3 | 0.00 | 0.00 | 0.00 | 46 | 1015.7 |
| 20260505184504 | 23 | 344 | 1.6 | 11.3 | 0.00 | 0.00 | 0.00 | 47 | 1015.7 |
| 20260505184103 | 23 | 2 | 1.6 | 8.0 | 0.00 | 0.00 | 0.00 | 39 | 1015.8 |
| 20260505183704 | 23 | 345 | 3.2 | 12.9 | 0.00 | 0.00 | 0.00 | 44 | 1015.9 |
| 20260505183504 | 23 | 293 | 3.2 | 12.9 | 0.00 | 0.00 | 0.00 | 50 | 1016.0 |
| 20260505183304 | 23 | 288 | 3.2 | 17.7 | 0.00 | 0.00 | 0.00 | 50 | 1016.0 |
| 20260505183204 | 23 | 282 | 3.2 | 17.7 | 0.00 | 0.00 | 0.00 | 41 | 1016.0 |
| 20260505183104 | 22 | 281 | 3.2 | 17.7 | 0.00 | 0.00 | 0.00 | 41 | 1016.0 |
| 20260505183004 | 22 | 284 | 3.2 | 17.7 | 0.00 | 0.00 | 0.00 | 45 | 1015.9 |
| 20260505182903 | 23 | 279 | 1.6 | 17.7 | 0.00 | 0.00 | 0.00 | 44 | 1016.0 |
| 20260505182804 | 23 | 275 | 1.6 | 17.7 | 0.00 | 0.00 | 0.00 | 44 | 1016.0 |
| 20260505182704 | 23 | 278 | 1.6 | 17.7 | 0.00 | 0.00 | 0.00 | 47 | 1016.1 |
| 20260505182306 | 23 | 202 | 1.6 | 16.1 | 0.00 | 0.00 | 0.00 | 47 | 1016.1 |
| 20260505182204 | 23 | 250 | 3.2 | 16.1 | 0.00 | 0.00 | 0.00 | 44 | 1016.1 |
| 20260505182104 | 23 | 285 | 3.2 | 16.1 | 0.00 | 0.00 | 0.00 | 41 | 1016.1 |
| 20260505181804 | 23 | 335 | 3.2 | 16.1 | 0.00 | 0.00 | 0.00 | 54 | 1016.3 |
| 20260505181304 | 22 | 329 | 3.2 | 19.3 | 0.00 | 0.00 | 0.00 | 44 | 1016.2 |
| 20260505181204 | 22 | 332 | 3.2 | 19.3 | 0.00 | 0.00 | 0.00 | 48 | 1016.2 |
| 20260505181104 | 22 | 324 | 3.2 | 19.3 | 0.00 | 0.00 | 0.00 | 45 | 1016.2 |
| 20260505181004 | 22 | 318 | 3.2 | 19.3 | 0.00 | 0.00 | 0.00 | 46 | 1016.3 |
| 20260505180604 | 22 | 299 | 3.2 | 19.3 | 0.00 | 0.00 | 0.00 | 49 | 1016.4 |
| 20260505180404 | 22 | 265 | 3.2 | 11.3 | 0.00 | 0.00 | 0.00 | 46 | 1016.3 |
| 20260505180104 | 22 | 357 | 3.2 | 9.7 | 0.00 | 0.00 | 0.00 | 51 | 1016.4 |
| 20260505180003 | 22 | 258 | 3.2 | 9.7 | 0.00 | 0.00 | 0.00 | 51 | 1016.4 |
| 20260505175904 | 22 | 278 | 3.2 | 9.7 | 0.00 | 0.00 | 0.00 | 45 | 1016.3 |
| 20260505175804 | 22 | 279 | 3.2 | 12.9 | 0.00 | 0.00 | 0.00 | 46 | 1016.3 |
| 20260505175504 | 22 | 274 | 4.8 | 12.9 | 0.00 | 0.00 | 0.00 | 46 | 1016.3 |
| 20260505175404 | 22 | 278 | 4.8 | 12.9 | 0.00 | 0.00 | 0.00 | 50 | 1016.4 |
| 20260505175305 | 22 | 276 | 4.8 | 12.9 | 0.00 | 0.00 | 0.00 | 46 | 1016.3 |
| 20260505175204 | 22 | 277 | 4.8 | 12.9 | 0.00 | 0.00 | 0.00 | 45 | 1016.4 |
| 20260505175004 | 22 | 285 | 4.8 | 17.7 | 0.00 | 0.00 | 0.00 | 44 | 1016.4 |
| 20260505174904 | 22 | 285 | 4.8 | 17.7 | 0.00 | 0.00 | 0.00 | 46 | 1016.4 |
| 20260505174704 | 22 | 286 | 3.2 | 17.7 | 0.00 | 0.00 | 0.00 | 52 | 1016.4 |
| 20260505174604 | 22 | 287 | 3.2 | 17.7 | 0.00 | 0.00 | 0.00 | 47 | 1016.4 |
| 20260505174404 | 21 | 287 | 3.2 | 17.7 | 0.00 | 0.00 | 0.00 | 47 | 1016.4 |
| 20260505174304 | 21 | 283 | 3.2 | 17.7 | 0.00 | 0.00 | 0.00 | 45 | 1016.3 |
| 20260505174103 | 22 | 279 | 4.8 | 12.9 | 0.00 | 0.00 | 0.00 | 43 | 1016.5 |
| 20260505174003 | 22 | 277 | 4.8 | 12.9 | 0.00 | 0.00 | 0.00 | 48 | 1016.5 |
| 20260505173904 | 22 | 275 | 4.8 | 9.7 | 0.00 | 0.00 | 0.00 | 46 | 1016.5 |
| 20260505173804 | 22 | 275 | 4.8 | 11.3 | 0.00 | 0.00 | 0.00 | 44 | 1016.4 |
| 20260505173704 | 22 | 279 | 6.4 | 16.1 | 0.00 | 0.00 | 0.00 | 47 | 1016.5 |
| 20260505173404 | 22 | 273 | 6.4 | 16.1 | 0.00 | 0.00 | 0.00 | 45 | 1016.5 |
| 20260505173104 | 22 | 275 | 8.0 | 16.1 | 0.00 | 0.00 | 0.00 | 48 | 1016.5 |
| 20260505172804 | 21 | 280 | 6.4 | 22.5 | 0.00 | 0.00 | 0.00 | 48 | 1016.6 |
| 20260505172604 | 21 | 284 | 6.4 | 22.5 | 0.00 | 0.00 | 0.00 | 46 | 1016.7 |
| 20260505172404 | 22 | 288 | 4.8 | 22.5 | 0.00 | 0.00 | 0.00 | 44 | 1016.7 |
| 20260505172105 | 22 | 290 | 4.8 | 22.5 | 0.00 | 0.00 | 0.00 | 45 | 1016.7 |
| 20260505171904 | 22 | 292 | 4.8 | 16.1 | 0.00 | 0.00 | 0.00 | 50 | 1016.8 |
| 20260505171504 | 22 | 288 | 4.8 | 19.3 | 0.00 | 0.00 | 0.00 | 49 | 1016.7 |
| 20260505171304 | 22 | 289 | 4.8 | 19.3 | 0.00 | 0.00 | 0.00 | 44 | 1016.9 |
| 20260505171104 | 22 | 291 | 4.8 | 19.3 | 0.00 | 0.00 | 0.00 | 51 | 1016.8 |
| 20260505171004 | 22 | 286 | 4.8 | 19.3 | 0.00 | 0.00 | 0.00 | 45 | 1016.8 |
| 20260505170704 | 22 | 292 | 4.8 | 19.3 | 0.00 | 0.00 | 0.00 | 42 | 1016.7 |
| 20260505170503 | 22 | 293 | 4.8 | 16.1 | 0.00 | 0.00 | 0.00 | 48 | 1016.8 |
| 20260505170204 | 22 | 295 | 3.2 | 14.5 | 0.00 | 0.00 | 0.00 | 50 | 1016.9 |
| 20260505165804 | 21 | 295 | 4.8 | 12.9 | 0.00 | 0.00 | 0.00 | 46 | 1016.9 |
| 20260505165704 | 21 | 300 | 4.8 | 12.9 | 0.00 | 0.00 | 0.00 | 50 | 1016.9 |
| 20260505165603 | 21 | 305 | 4.8 | 12.9 | 0.00 | 0.00 | 0.00 | 49 | 1016.9 |
| 20260505165504 | 21 | 303 | 4.8 | 12.9 | 0.00 | 0.00 | 0.00 | 45 | 1016.9 |
| 20260505165103 | 21 | 293 | 4.8 | 19.3 | 0.00 | 0.00 | 0.00 | 51 | 1016.9 |
| 20260505164704 | 21 | 284 | 4.8 | 19.3 | 0.00 | 0.00 | 0.00 | 49 | 1017.1 |
| 20260505164304 | 21 | 276 | 4.8 | 19.3 | 0.00 | 0.00 | 0.00 | 48 | 1017.0 |
| 20260505164204 | 21 | 277 | 4.8 | 19.3 | 0.00 | 0.00 | 0.00 | 47 | 1017.0 |
| 20260505164104 | 21 | 278 | 4.8 | 14.5 | 0.00 | 0.00 | 0.00 | 50 | 1017.0 |
| 20260505164004 | 21 | 281 | 4.8 | 14.5 | 0.00 | 0.00 | 0.00 | 54 | 1017.0 |
| 20260505163704 | 21 | 288 | 6.4 | 16.1 | 0.00 | 0.00 | 0.00 | 50 | 1016.9 |
| 20260505163404 | 21 | 289 | 8.0 | 16.1 | 0.00 | 0.00 | 0.00 | 50 | 1016.8 |
| 20260505163203 | 21 | 287 | 8.0 | 16.1 | 0.00 | 0.00 | 0.00 | 52 | 1016.8 |
| 20260505163104 | 21 | 285 | 6.4 | 16.1 | 0.00 | 0.00 | 0.00 | 50 | 1016.8 |
| 20260505162904 | 21 | 288 | 6.4 | 16.1 | 0.00 | 0.00 | 0.00 | 50 | 1016.8 |
| 20260505162803 | 21 | 290 | 6.4 | 16.1 | 0.00 | 0.00 | 0.00 | 54 | 1016.9 |
| 20260505162504 | 21 | 291 | 6.4 | 16.1 | 0.00 | 0.00 | 0.00 | 48 | 1016.8 |
| 20260505162306 | 21 | 290 | 4.8 | 14.5 | 0.00 | 0.00 | 0.00 | 50 | 1017.0 |
| 20260505162204 | 21 | 291 | 4.8 | 14.5 | 0.00 | 0.00 | 0.00 | 50 | 1016.9 |
| 20260505162104 | 21 | 293 | 4.8 | 16.1 | 0.00 | 0.00 | 0.00 | 51 | 1016.9 |
| 20260505162004 | 21 | 291 | 4.8 | 16.1 | 0.00 | 0.00 | 0.00 | 54 | 1016.9 |
| 20260505161704 | 21 | 290 | 3.2 | 16.1 | 0.00 | 0.00 | 0.00 | 48 | 1016.8 |
| 20260505161604 | 21 | 290 | 3.2 | 16.1 | 0.00 | 0.00 | 0.00 | 50 | 1016.8 |
| 20260505161504 | 21 | 290 | 3.2 | 16.1 | 0.00 | 0.00 | 0.00 | 50 | 1016.8 |
| 20260505161404 | 21 | 290 | 4.8 | 16.1 | 0.00 | 0.00 | 0.00 | 55 | 1016.9 |
| 20260505161204 | 21 | 292 | 3.2 | 16.1 | 0.00 | 0.00 | 0.00 | 58 | 1016.9 |
| 20260505161104 | 21 | 294 | 3.2 | 14.5 | 0.00 | 0.00 | 0.00 | 56 | 1016.9 |
| 20260505161004 | 21 | 295 | 4.8 | 14.5 | 0.00 | 0.00 | 0.00 | 52 | 1016.8 |
| 20260505160904 | 21 | 290 | 4.8 | 14.5 | 0.00 | 0.00 | 0.00 | 53 | 1016.9 |
| 20260505160803 | 21 | 288 | 3.2 | 16.1 | 0.00 | 0.00 | 0.00 | 52 | 1016.9 |
| 20260505160703 | 21 | 286 | 3.2 | 16.1 | 0.00 | 0.00 | 0.00 | 59 | 1016.9 |
| 20260505160504 | 20 | 286 | 3.2 | 16.1 | 0.00 | 0.00 | 0.00 | 53 | 1016.8 |
| 20260505160404 | 20 | 286 | 1.6 | 16.1 | 0.00 | 0.00 | 0.00 | 49 | 1016.9 |
| 20260505160303 | 20 | 286 | 1.6 | 16.1 | 0.00 | 0.00 | 0.00 | 52 | 1017.0 |
| 20260505160204 | 20 | 286 | 1.6 | 16.1 | 0.00 | 0.00 | 0.00 | 50 | 1016.9 |
| 20260505160104 | 20 | 288 | 1.6 | 16.1 | 0.00 | 0.00 | 0.00 | 48 | 1017.0 |
| 20260505152804 | 19 | 274 | 1.6 | 4.8 | 0.00 | 0.00 | 0.00 | 57 | 1017.4 |
| 20260505152605 | 19 | 271 | 1.6 | 9.7 | 0.00 | 0.00 | 0.00 | 54 | 1017.4 |
| 20260505152504 | 19 | 273 | 1.6 | 9.7 | 0.00 | 0.00 | 0.00 | 54 | 1017.4 |
| 20260505152305 | 19 | 285 | 1.6 | 11.3 | 0.00 | 0.00 | 0.00 | 59 | 1017.4 |
| 20260505152204 | 19 | 289 | 1.6 | 11.3 | 0.00 | 0.00 | 0.00 | 53 | 1017.4 |
| 20260505152104 | 19 | 292 | 1.6 | 11.3 | 0.00 | 0.00 | 0.00 | 55 | 1017.3 |
| 20260505151804 | 20 | 299 | 1.6 | 11.3 | 0.00 | 0.00 | 0.00 | 50 | 1017.3 |
| 20260505151204 | 20 | 320 | 0.0 | 9.7 | 0.00 | 0.00 | 0.00 | 54 | 1017.2 |
| 20260505150504 | 19 | 292 | 0.0 | 9.7 | 0.00 | 0.00 | 0.00 | 53 | 1017.2 |
| 20260505150405 | 19 | 301 | 0.0 | 9.7 | 0.00 | 0.00 | 0.00 | 53 | 1017.3 |
| 20260505150204 | 19 | 17 | 0.0 | 4.8 | 0.00 | 0.00 | 0.00 | 60 | 1017.4 |
| 20260505150104 | 19 | 18 | 0.0 | 4.8 | 0.00 | 0.00 | 0.00 | 59 | 1017.4 |
| 20260505140604 | 18 | 292 | 0.0 | 3.2 | 0.00 | 0.00 | 0.00 | 59 | 1017.5 |
| 20260505140304 | 18 | 0 | 0.0 | 0.0 | 0.00 | 0.00 | 0.00 | 68 | 1017.6 |
| 20260505140105 | 18 | 0 | 0.0 | 0.0 | 0.00 | 0.00 | 0.00 | 67 | 1017.5 |
| 20260505125004 | 13 | 0 | 0.0 | 0.0 | 0.00 | 0.00 | 0.00 | 75 | 1016.8 |
| 20260505124804 | 13 | 0 | 0.0 | 0.0 | 0.00 | 0.00 | 0.00 | 74 | 1016.8 |
| 20260505124704 | 13 | 0 | 0.0 | 0.0 | 0.00 | 0.00 | 0.00 | 76 | 1016.8 |
| 20260505124403 | 13 | 0 | 0.0 | 0.0 | 0.00 | 0.00 | 0.00 | 77 | 1016.7 |
| 20260505124304 | 12 | 0 | 0.0 | 0.0 | 0.00 | 0.00 | 0.00 | 77 | 1016.7 |
| 20260505124203 | 12 | 0 | 0.0 | 0.0 | 0.00 | 0.00 | 0.00 | 76 | 1016.7 |
| 20260505123904 | 12 | 0 | 0.0 | 0.0 | 0.00 | 0.00 | 0.00 | 76 | 1016.7 |
| 20260505123603 | 12 | 0 | 0.0 | 0.0 | 0.00 | 0.00 | 0.00 | 76 | 1016.7 |
| 20260505123404 | 12 | 0 | 0.0 | 0.0 | 0.00 | 0.00 | 0.00 | 77 | 1016.7 |
| 20260505123304 | 12 | 0 | 0.0 | 0.0 | 0.00 | 0.00 | 0.00 | 77 | 1016.7 |
| 20260505123104 | 12 | 0 | 0.0 | 0.0 | 0.00 | 0.00 | 0.00 | 77 | 1016.6 |
| 20260505123004 | 12 | 0 | 0.0 | 0.0 | 0.00 | 0.00 | 0.00 | 78 | 1016.6 |
| 20260505122904 | 12 | 0 | 0.0 | 0.0 | 0.00 | 0.00 | 0.00 | 78 | 1016.5 |
| 20260505122804 | 11 | 0 | 0.0 | 0.0 | 0.00 | 0.00 | 0.00 | 78 | 1016.6 |
| 20260505122703 | 11 | 0 | 0.0 | 0.0 | 0.00 | 0.00 | 0.00 | 77 | 1016.6 |
| 20260505122604 | 11 | 0 | 0.0 | 0.0 | 0.00 | 0.00 | 0.00 | 77 | 1016.6 |
| 20260505122504 | 11 | 0 | 0.0 | 0.0 | 0.00 | 0.00 | 0.00 | 77 | 1016.5 |
| 20260505122306 | 11 | 0 | 0.0 | 0.0 | 0.00 | 0.00 | 0.00 | 77 | 1016.6 |
| 20260505122204 | 11 | 0 | 0.0 | 0.0 | 0.00 | 0.00 | 0.00 | 77 | 1016.6 |
| 20260505122104 | 11 | 0 | 0.0 | 0.0 | 0.00 | 0.00 | 0.00 | 77 | 1016.6 |
| 20260505122004 | 11 | 0 | 0.0 | 0.0 | 0.00 | 0.00 | 0.00 | 78 | 1016.6 |
| 20260505121904 | 11 | 0 | 0.0 | 0.0 | 0.00 | 0.00 | 0.00 | 78 | 1016.6 |
| 20260505121804 | 11 | 0 | 0.0 | 0.0 | 0.00 | 0.00 | 0.00 | 78 | 1016.6 |
| 20260505121704 | 11 | 0 | 0.0 | 0.0 | 0.00 | 0.00 | 0.00 | 78 | 1016.6 |
| 20260505121503 | 11 | 0 | 0.0 | 0.0 | 0.00 | 0.00 | 0.00 | 78 | 1016.6 |
| 20260505121404 | 11 | 0 | 0.0 | 0.0 | 0.00 | 0.00 | 0.00 | 78 | 1016.6 |
| 20260505121304 | 11 | 0 | 0.0 | 0.0 | 0.00 | 0.00 | 0.00 | 78 | 1016.6 |
| 20260505121204 | 11 | 0 | 0.0 | 0.0 | 0.00 | 0.00 | 0.00 | 78 | 1016.6 |
| 20260505120904 | 11 | 0 | 0.0 | 0.0 | 0.00 | 0.00 | 0.00 | 78 | 1016.6 |
| 20260505120604 | 11 | 0 | 0.0 | 0.0 | 0.00 | 0.00 | 0.00 | 79 | 1016.6 |
| 20260505120204 | 11 | 0 | 0.0 | 0.0 | 0.00 | 0.00 | 0.00 | 78 | 1016.7 |
| 20260505115904 | 11 | 0 | 0.0 | 0.0 | 0.00 | 0.00 | 0.00 | 78 | 1016.4 |
| 20260505115404 | 10 | 0 | 0.0 | 0.0 | 0.00 | 0.00 | 0.00 | 79 | 1016.4 |
| 20260505115305 | 10 | 0 | 0.0 | 0.0 | 0.00 | 0.00 | 0.00 | 79 | 1016.4 |
| 20260505115004 | 10 | 0 | 0.0 | 0.0 | 0.00 | 0.00 | 0.00 | 79 | 1016.3 |
| 20260505114904 | 10 | 0 | 0.0 | 0.0 | 0.00 | 0.00 | 0.00 | 79 | 1016.2 |
| 20260505114804 | 10 | 0 | 0.0 | 0.0 | 0.00 | 0.00 | 0.00 | 79 | 1016.2 |
| 20260505114704 | 10 | 0 | 0.0 | 0.0 | 0.00 | 0.00 | 0.00 | 79 | 1016.1 |
| 20260505114304 | 10 | 0 | 0.0 | 0.0 | 0.00 | 0.00 | 0.00 | 79 | 1016.2 |
| 20260505114103 | 10 | 0 | 0.0 | 0.0 | 0.00 | 0.00 | 0.00 | 79 | 1016.1 |
| 20260505114004 | 10 | 0 | 0.0 | 0.0 | 0.00 | 0.00 | 0.00 | 79 | 1016.2 |
| 20260505113904 | 10 | 0 | 0.0 | 0.0 | 0.00 | 0.00 | 0.00 | 79 | 1016.1 |
| 20260505113504 | 10 | 0 | 0.0 | 0.0 | 0.00 | 0.00 | 0.00 | 80 | 1016.1 |
| 20260505113304 | 10 | 0 | 0.0 | 0.0 | 0.00 | 0.00 | 0.00 | 80 | 1016.1 |
| 20260505113204 | 10 | 0 | 0.0 | 0.0 | 0.00 | 0.00 | 0.00 | 80 | 1016.1 |
| 20260505113005 | 10 | 0 | 0.0 | 0.0 | 0.00 | 0.00 | 0.00 | 81 | 1016.2 |
| 20260505112804 | 10 | 0 | 0.0 | 0.0 | 0.00 | 0.00 | 0.00 | 80 | 1016.1 |
| 20260505112404 | 10 | 0 | 0.0 | 0.0 | 0.00 | 0.00 | 0.00 | 82 | 1016.1 |
| 20260505112104 | 10 | 0 | 0.0 | 0.0 | 0.00 | 0.00 | 0.00 | 82 | 1016.2 |
| 20260505111803 | 10 | 0 | 0.0 | 0.0 | 0.00 | 0.00 | 0.00 | 79 | 1016.0 |
| 20260505111704 | 10 | 0 | 0.0 | 0.0 | 0.00 | 0.00 | 0.00 | 79 | 1016.0 |
| 20260505111604 | 10 | 0 | 0.0 | 0.0 | 0.00 | 0.00 | 0.00 | 79 | 1016.0 |
| 20260505110904 | 10 | 0 | 0.0 | 0.0 | 0.00 | 0.00 | 0.00 | 79 | 1015.8 |
| 20260505110304 | 10 | 0 | 0.0 | 0.0 | 0.00 | 0.00 | 0.00 | 78 | 1015.6 |
| 20260505110203 | 10 | 0 | 0.0 | 0.0 | 0.00 | 0.00 | 0.00 | 78 | 1015.6 |
| 20260505110104 | 10 | 0 | 0.0 | 0.0 | 0.00 | 0.00 | 0.00 | 77 | 1015.7 |
| 20260505102104 | 10 | 0 | 0.0 | 0.0 | 0.00 | 0.00 | 0.00 | 78 | 1015.9 |
| 20260505102004 | 10 | 0 | 0.0 | 0.0 | 0.00 | 0.00 | 0.00 | 78 | 1015.9 |
| 20260505101905 | 10 | 0 | 0.0 | 0.0 | 0.00 | 0.00 | 0.00 | 78 | 1015.9 |
| 20260505101604 | 10 | 0 | 0.0 | 0.0 | 0.00 | 0.00 | 0.00 | 77 | 1015.9 |
| 20260505101004 | 10 | 0 | 0.0 | 0.0 | 0.00 | 0.00 | 0.00 | 75 | 1015.7 |
| 20260505100904 | 10 | 0 | 0.0 | 0.0 | 0.00 | 0.00 | 0.00 | 75 | 1015.7 |
| 20260505100804 | 10 | 0 | 0.0 | 0.0 | 0.00 | 0.00 | 0.00 | 76 | 1015.7 |
| 20260505100704 | 10 | 0 | 0.0 | 0.0 | 0.00 | 0.00 | 0.00 | 76 | 1015.7 |
| 20260505100604 | 10 | 0 | 0.0 | 0.0 | 0.00 | 0.00 | 0.00 | 76 | 1015.7 |
| 20260505100504 | 10 | 0 | 0.0 | 0.0 | 0.00 | 0.00 | 0.00 | 75 | 1015.7 |
| 20260505100304 | 11 | 0 | 0.0 | 0.0 | 0.00 | 0.00 | 0.00 | 75 | 1015.7 |
| 20260505100204 | 11 | 0 | 0.0 | 0.0 | 0.00 | 0.00 | 0.00 | 75 | 1015.8 |
| 20260505100004 | 10 | 0 | 0.0 | 0.0 | 0.00 | 0.00 | 0.00 | 76 | 1015.8 |
| 20260505095603 | 10 | 0 | 0.0 | 0.0 | 0.00 | 0.00 | 0.00 | 76 | 1015.8 |
| 20260505095305 | 11 | 0 | 0.0 | 0.0 | 0.00 | 0.00 | 0.00 | 75 | 1015.8 |
| 20260505095004 | 11 | 0 | 0.0 | 0.0 | 0.00 | 0.00 | 0.00 | 75 | 1015.9 |
| 20260505094903 | 11 | 0 | 0.0 | 0.0 | 0.00 | 0.00 | 0.00 | 75 | 1015.9 |
| 20260505094803 | 11 | 0 | 0.0 | 0.0 | 0.00 | 0.00 | 0.00 | 74 | 1015.9 |
| 20260505094705 | 11 | 0 | 0.0 | 0.0 | 0.00 | 0.00 | 0.00 | 74 | 1015.9 |
| 20260505094304 | 11 | 0 | 0.0 | 0.0 | 0.00 | 0.00 | 0.00 | 73 | 1015.8 |
| 20260505094204 | 11 | 0 | 0.0 | 0.0 | 0.00 | 0.00 | 0.00 | 73 | 1015.9 |
| 20260505094004 | 11 | 0 | 0.0 | 0.0 | 0.00 | 0.00 | 0.00 | 74 | 1015.9 |
| 20260505093604 | 11 | 0 | 0.0 | 0.0 | 0.00 | 0.00 | 0.00 | 74 | 1015.9 |
| 20260505093304 | 11 | 0 | 0.0 | 0.0 | 0.00 | 0.00 | 0.00 | 73 | 1015.9 |
| 20260505093205 | 11 | 0 | 0.0 | 0.0 | 0.00 | 0.00 | 0.00 | 72 | 1015.8 |
| 20260505093103 | 11 | 0 | 0.0 | 0.0 | 0.00 | 0.00 | 0.00 | 72 | 1015.8 |
| 20260505093004 | 11 | 0 | 0.0 | 0.0 | 0.00 | 0.00 | 0.00 | 72 | 1015.9 |
| 20260505092904 | 11 | 0 | 0.0 | 0.0 | 0.00 | 0.00 | 0.00 | 72 | 1015.8 |
| 20260505092804 | 11 | 0 | 0.0 | 0.0 | 0.00 | 0.00 | 0.00 | 72 | 1015.9 |
| 20260505092604 | 11 | 0 | 0.0 | 0.0 | 0.00 | 0.00 | 0.00 | 71 | 1015.9 |
| 20260505092504 | 11 | 0 | 0.0 | 0.0 | 0.00 | 0.00 | 0.00 | 72 | 1015.9 |
| 20260505092404 | 11 | 0 | 0.0 | 0.0 | 0.00 | 0.00 | 0.00 | 72 | 1015.9 |
| 20260505092305 | 11 | 0 | 0.0 | 0.0 | 0.00 | 0.00 | 0.00 | 72 | 1015.9 |
| 20260505092104 | 11 | 0 | 0.0 | 0.0 | 0.00 | 0.00 | 0.00 | 72 | 1016.0 |
| 20260505091803 | 11 | 0 | 0.0 | 0.0 | 0.00 | 0.00 | 0.00 | 72 | 1016.0 |
| 20260505091604 | 11 | 0 | 0.0 | 0.0 | 0.00 | 0.00 | 0.00 | 72 | 1016.0 |
| 20260505091304 | 11 | 0 | 0.0 | 0.0 | 0.00 | 0.00 | 0.00 | 73 | 1016.0 |
| 20260505090904 | 11 | 0 | 0.0 | 0.0 | 0.00 | 0.00 | 0.00 | 73 | 1016.1 |
| 20260505090704 | 11 | 0 | 0.0 | 0.0 | 0.00 | 0.00 | 0.00 | 73 | 1016.1 |
| 20260505090604 | 11 | 0 | 0.0 | 0.0 | 0.00 | 0.00 | 0.00 | 74 | 1016.2 |
| 20260505090404 | 11 | 0 | 0.0 | 0.0 | 0.00 | 0.00 | 0.00 | 74 | 1016.2 |
| 20260505090104 | 11 | 0 | 0.0 | 0.0 | 0.00 | 0.00 | 0.00 | 74 | 1016.0 |
| 20260505090004 | 11 | 0 | 0.0 | 0.0 | 0.00 | 0.00 | 0.00 | 75 | 1016.0 |
| 20260505085804 | 11 | 0 | 0.0 | 0.0 | 0.00 | 0.00 | 0.00 | 75 | 1015.9 |
| 20260505085704 | 11 | 0 | 0.0 | 0.0 | 0.00 | 0.00 | 0.00 | 75 | 1015.9 |
| 20260505085503 | 11 | 0 | 0.0 | 0.0 | 0.00 | 0.00 | 0.00 | 76 | 1015.9 |
| 20260505085404 | 11 | 0 | 0.0 | 0.0 | 0.00 | 0.00 | 0.00 | 75 | 1015.9 |
| 20260505085305 | 11 | 0 | 0.0 | 0.0 | 0.00 | 0.00 | 0.00 | 75 | 1016.0 |
| 20260505085203 | 11 | 0 | 0.0 | 0.0 | 0.00 | 0.00 | 0.00 | 75 | 1016.0 |
| 20260505084904 | 11 | 0 | 0.0 | 0.0 | 0.00 | 0.00 | 0.00 | 74 | 1015.9 |
| 20260505084804 | 11 | 0 | 0.0 | 0.0 | 0.00 | 0.00 | 0.00 | 74 | 1015.9 |
| 20260505084503 | 11 | 0 | 0.0 | 0.0 | 0.00 | 0.00 | 0.00 | 73 | 1016.0 |
| 20260505083904 | 11 | 0 | 0.0 | 0.0 | 0.00 | 0.00 | 0.00 | 73 | 1016.0 |
| 20260505083805 | 11 | 0 | 0.0 | 0.0 | 0.00 | 0.00 | 0.00 | 72 | 1016.0 |
| 20260505083504 | 11 | 0 | 0.0 | 0.0 | 0.00 | 0.00 | 0.00 | 72 | 1016.0 |
| 20260505083204 | 11 | 0 | 0.0 | 0.0 | 0.00 | 0.00 | 0.00 | 72 | 1016.1 |
| 20260505083105 | 12 | 0 | 0.0 | 0.0 | 0.00 | 0.00 | 0.00 | 72 | 1016.1 |
| 20260505082904 | 12 | 0 | 0.0 | 0.0 | 0.00 | 0.00 | 0.00 | 71 | 1015.9 |
| 20260505082704 | 12 | 0 | 0.0 | 0.0 | 0.00 | 0.00 | 0.00 | 71 | 1016.0 |
| 20260505082603 | 12 | 0 | 0.0 | 0.0 | 0.00 | 0.00 | 0.00 | 71 | 1016.1 |
| 20260505082504 | 12 | 0 | 0.0 | 0.0 | 0.00 | 0.00 | 0.00 | 71 | 1016.1 |
| 20260505081704 | 12 | 0 | 0.0 | 0.0 | 0.00 | 0.00 | 0.00 | 71 | 1016.0 |
| 20260505081603 | 12 | 0 | 0.0 | 0.0 | 0.00 | 0.00 | 0.00 | 71 | 1016.1 |
| 20260505081504 | 12 | 0 | 0.0 | 0.0 | 0.00 | 0.00 | 0.00 | 71 | 1016.1 |
| 20260505081204 | 12 | 0 | 0.0 | 0.0 | 0.00 | 0.00 | 0.00 | 72 | 1016.2 |
| 20260505081104 | 11 | 0 | 0.0 | 0.0 | 0.00 | 0.00 | 0.00 | 72 | 1016.2 |
| 20260505080904 | 11 | 0 | 0.0 | 0.0 | 0.00 | 0.00 | 0.00 | 72 | 1016.2 |
| 20260505080804 | 12 | 0 | 0.0 | 0.0 | 0.00 | 0.00 | 0.00 | 71 | 1016.1 |
| 20260505080704 | 12 | 0 | 0.0 | 0.0 | 0.00 | 0.00 | 0.00 | 71 | 1016.1 |
| 20260505080403 | 12 | 0 | 0.0 | 0.0 | 0.00 | 0.00 | 0.00 | 71 | 1016.1 |
| 20260505080304 | 12 | 0 | 0.0 | 0.0 | 0.00 | 0.00 | 0.00 | 71 | 1016.2 |
| 20260505080204 | 12 | 0 | 0.0 | 0.0 | 0.00 | 0.00 | 0.00 | 71 | 1016.2 |
| 20260505080004 | 12 | 0 | 0.0 | 0.0 | 0.00 | 0.00 | 0.00 | 71 | 1016.0 |
| 20260505075903 | 12 | 0 | 0.0 | 0.0 | 0.00 | 0.00 | 0.00 | 71 | 1016.0 |
| 20260505075804 | 12 | 0 | 0.0 | 0.0 | 0.00 | 0.00 | 0.00 | 71 | 1016.0 |
| 20260505075704 | 12 | 0 | 0.0 | 0.0 | 0.00 | 0.00 | 0.00 | 71 | 1016.0 |
| 20260505075604 | 12 | 0 | 0.0 | 0.0 | 0.00 | 0.00 | 0.00 | 71 | 1016.0 |
| 20260505075503 | 12 | 0 | 0.0 | 0.0 | 0.00 | 0.00 | 0.00 | 70 | 1016.0 |
| 20260505075304 | 12 | 0 | 0.0 | 0.0 | 0.00 | 0.00 | 0.00 | 69 | 1016.0 |
| 20260505075103 | 12 | 0 | 0.0 | 0.0 | 0.00 | 0.00 | 0.00 | 69 | 1016.0 |
| 20260505074904 | 12 | 0 | 0.0 | 0.0 | 0.00 | 0.00 | 0.00 | 69 | 1016.0 |
| 20260505074803 | 12 | 0 | 0.0 | 0.0 | 0.00 | 0.00 | 0.00 | 69 | 1016.1 |
| 20260505074404 | 12 | 0 | 0.0 | 0.0 | 0.00 | 0.00 | 0.00 | 69 | 1016.0 |
| 20260505074203 | 12 | 0 | 0.0 | 0.0 | 0.00 | 0.00 | 0.00 | 69 | 1016.0 |
| 20260505074004 | 12 | 0 | 0.0 | 0.0 | 0.00 | 0.00 | 0.00 | 68 | 1016.0 |
| 20260505073904 | 12 | 0 | 0.0 | 0.0 | 0.00 | 0.00 | 0.00 | 68 | 1016.0 |
| 20260505073703 | 12 | 0 | 0.0 | 0.0 | 0.00 | 0.00 | 0.00 | 68 | 1016.0 |
| 20260505073604 | 12 | 0 | 0.0 | 0.0 | 0.00 | 0.00 | 0.00 | 68 | 1016.1 |
| 20260505073304 | 12 | 0 | 0.0 | 0.0 | 0.00 | 0.00 | 0.00 | 67 | 1016.1 |
| 20260505073104 | 13 | 0 | 0.0 | 0.0 | 0.00 | 0.00 | 0.00 | 67 | 1016.0 |
| 20260505072804 | 13 | 0 | 0.0 | 0.0 | 0.00 | 0.00 | 0.00 | 67 | 1016.0 |
| 20260505072604 | 13 | 0 | 0.0 | 0.0 | 0.00 | 0.00 | 0.00 | 67 | 1016.0 |
| 20260505072504 | 13 | 0 | 0.0 | 0.0 | 0.00 | 0.00 | 0.00 | 67 | 1016.0 |
| 20260505072404 | 13 | 0 | 0.0 | 0.0 | 0.00 | 0.00 | 0.00 | 67 | 1016.1 |
| 20260505071904 | 13 | 0 | 0.0 | 0.0 | 0.00 | 0.00 | 0.00 | 67 | 1016.1 |
| 20260505071604 | 13 | 0 | 0.0 | 0.0 | 0.00 | 0.00 | 0.00 | 67 | 1016.1 |
| 20260505071404 | 13 | 0 | 0.0 | 0.0 | 0.00 | 0.00 | 0.00 | 67 | 1016.0 |
| 20260505071204 | 13 | 0 | 0.0 | 0.0 | 0.00 | 0.00 | 0.00 | 68 | 1016.0 |
| 20260505071007 | 12 | 0 | 0.0 | 0.0 | 0.00 | 0.00 | 0.00 | 68 | 1016.0 |
| 20260505070704 | 13 | 0 | 0.0 | 0.0 | 0.00 | 0.00 | 0.00 | 67 | 1016.0 |
| 20260505070404 | 12 | 0 | 0.0 | 0.0 | 0.00 | 0.00 | 0.00 | 69 | 1016.0 |
| 20260505070304 | 12 | 0 | 0.0 | 0.0 | 0.00 | 0.00 | 0.00 | 69 | 1016.0 |
| 20260505070203 | 12 | 0 | 0.0 | 0.0 | 0.00 | 0.00 | 0.00 | 69 | 1016.0 |
| 20260505070004 | 12 | 0 | 0.0 | 0.0 | 0.00 | 0.00 | 0.00 | 69 | 1016.0 |
| 20260505065304 | 12 | 0 | 0.0 | 0.0 | 0.00 | 0.00 | 0.00 | 69 | 1016.1 |
| 20260505064804 | 12 | 0 | 0.0 | 0.0 | 0.00 | 0.00 | 0.00 | 68 | 1016.0 |
| 20260505064704 | 12 | 0 | 0.0 | 0.0 | 0.00 | 0.00 | 0.00 | 68 | 1016.0 |
| 20260505064304 | 12 | 0 | 0.0 | 0.0 | 0.00 | 0.00 | 0.00 | 68 | 1016.0 |
| 20260505064204 | 13 | 0 | 0.0 | 0.0 | 0.00 | 0.00 | 0.00 | 68 | 1015.9 |
| 20260505063903 | 12 | 0 | 0.0 | 0.0 | 0.00 | 0.00 | 0.00 | 68 | 1015.9 |
| 20260505063804 | 12 | 0 | 0.0 | 0.0 | 0.00 | 0.00 | 0.00 | 69 | 1015.9 |
| 20260505063704 | 12 | 0 | 0.0 | 0.0 | 0.00 | 0.00 | 0.00 | 69 | 1015.9 |
| 20260505063403 | 12 | 0 | 0.0 | 0.0 | 0.00 | 0.00 | 0.00 | 69 | 1016.0 |
| 20260505062804 | 12 | 0 | 0.0 | 0.0 | 0.00 | 0.00 | 0.00 | 69 | 1016.0 |
| 20260505062504 | 12 | 0 | 0.0 | 0.0 | 0.00 | 0.00 | 0.00 | 70 | 1016.1 |
| 20260505062404 | 12 | 0 | 0.0 | 0.0 | 0.00 | 0.00 | 0.00 | 70 | 1016.1 |
| 20260505062304 | 12 | 0 | 0.0 | 0.0 | 0.00 | 0.00 | 0.00 | 70 | 1016.1 |
| 20260505062204 | 12 | 0 | 0.0 | 0.0 | 0.00 | 0.00 | 0.00 | 70 | 1016.2 |
| 20260505061704 | 12 | 0 | 0.0 | 0.0 | 0.00 | 0.00 | 0.00 | 70 | 1016.1 |
| 20260505061604 | 12 | 0 | 0.0 | 0.0 | 0.00 | 0.00 | 0.00 | 71 | 1016.1 |
| 20260505061504 | 12 | 0 | 0.0 | 0.0 | 0.00 | 0.00 | 0.00 | 71 | 1016.1 |
| 20260505061404 | 12 | 0 | 0.0 | 0.0 | 0.00 | 0.00 | 0.00 | 71 | 1016.1 |
| 20260505061304 | 12 | 0 | 0.0 | 0.0 | 0.00 | 0.00 | 0.00 | 72 | 1016.1 |
| 20260505061203 | 12 | 0 | 0.0 | 0.0 | 0.00 | 0.00 | 0.00 | 71 | 1016.2 |
| 20260505060904 | 12 | 0 | 0.0 | 0.0 | 0.00 | 0.00 | 0.00 | 71 | 1016.3 |
| 20260505060803 | 12 | 0 | 0.0 | 0.0 | 0.00 | 0.00 | 0.00 | 71 | 1016.2 |
| 20260505060704 | 12 | 0 | 0.0 | 0.0 | 0.00 | 0.00 | 0.00 | 71 | 1016.2 |
| 20260505060304 | 12 | 0 | 0.0 | 0.0 | 0.00 | 0.00 | 0.00 | 72 | 1016.3 |
| 20260505060104 | 12 | 0 | 0.0 | 0.0 | 0.00 | 0.00 | 0.00 | 72 | 1016.3 |
| 20260505055804 | 12 | 0 | 0.0 | 0.0 | 0.00 | 0.00 | 0.00 | 71 | 1016.1 |
| 20260505055704 | 12 | 0 | 0.0 | 0.0 | 0.00 | 0.00 | 0.00 | 71 | 1016.1 |
| 20260505055604 | 12 | 0 | 0.0 | 0.0 | 0.00 | 0.00 | 0.00 | 72 | 1016.1 |
| 20260505055204 | 12 | 0 | 0.0 | 0.0 | 0.00 | 0.00 | 0.00 | 72 | 1016.2 |
| 20260505055104 | 12 | 0 | 0.0 | 0.0 | 0.00 | 0.00 | 0.00 | 72 | 1016.2 |
| 20260505055004 | 12 | 0 | 0.0 | 0.0 | 0.00 | 0.00 | 0.00 | 71 | 1016.2 |
| 20260505054904 | 12 | 0 | 0.0 | 0.0 | 0.00 | 0.00 | 0.00 | 72 | 1016.2 |
| 20260505054704 | 12 | 0 | 0.0 | 0.0 | 0.00 | 0.00 | 0.00 | 71 | 1016.2 |
| 20260505054604 | 12 | 0 | 0.0 | 0.0 | 0.00 | 0.00 | 0.00 | 71 | 1016.3 |
| 20260505054504 | 12 | 0 | 0.0 | 0.0 | 0.00 | 0.00 | 0.00 | 71 | 1016.3 |
| 20260505054404 | 12 | 0 | 0.0 | 0.0 | 0.00 | 0.00 | 0.00 | 71 | 1016.2 |
| 20260505054304 | 12 | 0 | 0.0 | 0.0 | 0.00 | 0.00 | 0.00 | 71 | 1016.3 |
| 20260505053904 | 12 | 0 | 0.0 | 0.0 | 0.00 | 0.00 | 0.00 | 71 | 1016.3 |
| 20260505053804 | 12 | 0 | 0.0 | 0.0 | 0.00 | 0.00 | 0.00 | 71 | 1016.3 |
| 20260505053504 | 12 | 0 | 0.0 | 0.0 | 0.00 | 0.00 | 0.00 | 71 | 1016.3 |
| 20260505053303 | 12 | 0 | 0.0 | 0.0 | 0.00 | 0.00 | 0.00 | 71 | 1016.3 |
| 20260505052904 | 12 | 0 | 0.0 | 0.0 | 0.00 | 0.00 | 0.00 | 71 | 1016.3 |
| 20260505052404 | 12 | 0 | 0.0 | 0.0 | 0.00 | 0.00 | 0.00 | 71 | 1016.2 |
| 20260505052304 | 12 | 0 | 0.0 | 0.0 | 0.00 | 0.00 | 0.00 | 71 | 1016.3 |
| 20260505052004 | 12 | 0 | 0.0 | 0.0 | 0.00 | 0.00 | 0.00 | 71 | 1016.2 |
| 20260505051903 | 12 | 0 | 0.0 | 0.0 | 0.00 | 0.00 | 0.00 | 71 | 1016.2 |
| 20260505051704 | 12 | 0 | 0.0 | 0.0 | 0.00 | 0.00 | 0.00 | 71 | 1016.2 |
| 20260505051603 | 12 | 0 | 0.0 | 0.0 | 0.00 | 0.00 | 0.00 | 71 | 1016.2 |
| 20260505051204 | 12 | 0 | 0.0 | 0.0 | 0.00 | 0.00 | 0.00 | 71 | 1016.2 |
| 20260505051104 | 12 | 0 | 0.0 | 0.0 | 0.00 | 0.00 | 0.00 | 71 | 1016.2 |
| 20260505050905 | 12 | 0 | 0.0 | 0.0 | 0.00 | 0.00 | 0.00 | 71 | 1016.2 |
| 20260505050804 | 12 | 0 | 0.0 | 0.0 | 0.00 | 0.00 | 0.00 | 71 | 1016.2 |
| 20260505050604 | 12 | 0 | 0.0 | 0.0 | 0.00 | 0.00 | 0.00 | 71 | 1016.2 |
| 20260505050303 | 12 | 0 | 0.0 | 0.0 | 0.00 | 0.00 | 0.00 | 71 | 1016.2 |
| 20260505041704 | 13 | 0 | 0.0 | 0.0 | 0.00 | 0.00 | 0.00 | 68 | 1016.3 |
| 20260505041604 | 13 | 0 | 0.0 | 0.0 | 0.00 | 0.00 | 0.00 | 69 | 1016.2 |
| 20260505041404 | 13 | 0 | 0.0 | 0.0 | 0.00 | 0.00 | 0.00 | 69 | 1016.3 |
| 20260505041104 | 13 | 0 | 0.0 | 0.0 | 0.00 | 0.00 | 0.00 | 70 | 1016.3 |
| 20260505041003 | 13 | 0 | 0.0 | 0.0 | 0.00 | 0.00 | 0.00 | 70 | 1016.3 |
| 20260505040904 | 13 | 0 | 0.0 | 0.0 | 0.00 | 0.00 | 0.00 | 69 | 1016.3 |
| 20260505040104 | 13 | 0 | 0.0 | 0.0 | 0.00 | 0.00 | 0.00 | 69 | 1016.2 |
| 20260505040005 | 13 | 0 | 0.0 | 0.0 | 0.00 | 0.00 | 0.00 | 69 | 1016.2 |
| 20260505035704 | 13 | 0 | 0.0 | 0.0 | 0.00 | 0.00 | 0.00 | 68 | 1016.2 |
| 20260505035503 | 13 | 0 | 0.0 | 0.0 | 0.00 | 0.00 | 0.00 | 68 | 1016.2 |
| 20260505035203 | 13 | 0 | 0.0 | 0.0 | 0.00 | 0.00 | 0.00 | 69 | 1016.2 |
| 20260505035103 | 13 | 0 | 0.0 | 0.0 | 0.00 | 0.00 | 0.00 | 69 | 1016.2 |
| 20260505035004 | 13 | 0 | 0.0 | 0.0 | 0.00 | 0.00 | 0.00 | 69 | 1016.2 |
| 20260505034904 | 13 | 0 | 0.0 | 0.0 | 0.00 | 0.00 | 0.00 | 68 | 1016.3 |
| 20260505034803 | 13 | 0 | 0.0 | 0.0 | 0.00 | 0.00 | 0.00 | 69 | 1016.3 |
| 20260505034704 | 13 | 0 | 0.0 | 0.0 | 0.00 | 0.00 | 0.00 | 68 | 1016.3 |
| 20260505034504 | 13 | 0 | 0.0 | 0.0 | 0.00 | 0.00 | 0.00 | 68 | 1016.3 |
| 20260505034304 | 13 | 0 | 0.0 | 0.0 | 0.00 | 0.00 | 0.00 | 69 | 1016.3 |
| 20260505034204 | 13 | 0 | 0.0 | 0.0 | 0.00 | 0.00 | 0.00 | 69 | 1016.3 |
| 20260505034103 | 13 | 0 | 0.0 | 0.0 | 0.00 | 0.00 | 0.00 | 69 | 1016.3 |
| 20260505034003 | 13 | 0 | 0.0 | 0.0 | 0.00 | 0.00 | 0.00 | 69 | 1016.3 |
| 20260505033604 | 13 | 0 | 0.0 | 0.0 | 0.00 | 0.00 | 0.00 | 68 | 1016.3 |
| 20260505033104 | 13 | 0 | 0.0 | 0.0 | 0.00 | 0.00 | 0.00 | 68 | 1016.4 |
| 20260505032704 | 14 | 0 | 0.0 | 0.0 | 0.00 | 0.00 | 0.00 | 67 | 1016.3 |
| 20260505032404 | 14 | 0 | 0.0 | 0.0 | 0.00 | 0.00 | 0.00 | 66 | 1016.3 |
| 20260505032204 | 14 | 0 | 0.0 | 0.0 | 0.00 | 0.00 | 0.00 | 65 | 1016.3 |
| 20260505031903 | 14 | 0 | 0.0 | 0.0 | 0.00 | 0.00 | 0.00 | 66 | 1016.3 |
| 20260505031704 | 14 | 0 | 0.0 | 0.0 | 0.00 | 0.00 | 0.00 | 66 | 1016.3 |
| 20260505031504 | 14 | 0 | 0.0 | 0.0 | 0.00 | 0.00 | 0.00 | 66 | 1016.3 |
| 20260505031404 | 14 | 0 | 0.0 | 0.0 | 0.00 | 0.00 | 0.00 | 67 | 1016.3 |
| 20260505031104 | 14 | 0 | 0.0 | 0.0 | 0.00 | 0.00 | 0.00 | 67 | 1016.3 |
| 20260505031004 | 14 | 0 | 0.0 | 0.0 | 0.00 | 0.00 | 0.00 | 67 | 1016.3 |
| 20260505030804 | 14 | 0 | 0.0 | 0.0 | 0.00 | 0.00 | 0.00 | 67 | 1016.3 |
| 20260505030504 | 14 | 0 | 0.0 | 0.0 | 0.00 | 0.00 | 0.00 | 68 | 1016.4 |
| 20260505030404 | 14 | 0 | 0.0 | 0.0 | 0.00 | 0.00 | 0.00 | 68 | 1016.3 |
| 20260505030304 | 14 | 0 | 0.0 | 0.0 | 0.00 | 0.00 | 0.00 | 68 | 1016.4 |
| 20260505030105 | 14 | 0 | 0.0 | 0.0 | 0.00 | 0.00 | 0.00 | 68 | 1016.3 |
| 20260505030004 | 14 | 0 | 0.0 | 0.0 | 0.00 | 0.00 | 0.00 | 67 | 1016.4 |
| 20260505025904 | 14 | 0 | 0.0 | 0.0 | 0.00 | 0.00 | 0.00 | 67 | 1016.4 |
| 20260505025803 | 14 | 0 | 0.0 | 0.0 | 0.00 | 0.00 | 0.00 | 68 | 1016.4 |
| 20260505025704 | 14 | 0 | 0.0 | 0.0 | 0.00 | 0.00 | 0.00 | 68 | 1016.4 |
| 20260505025504 | 14 | 0 | 0.0 | 0.0 | 0.00 | 0.00 | 0.00 | 68 | 1016.3 |
| 20260505025403 | 14 | 0 | 0.0 | 0.0 | 0.00 | 0.00 | 0.00 | 68 | 1016.4 |
| 20260505025305 | 14 | 0 | 0.0 | 0.0 | 0.00 | 0.00 | 0.00 | 68 | 1016.4 |
| 20260505025004 | 14 | 0 | 0.0 | 0.0 | 0.00 | 0.00 | 0.00 | 68 | 1016.3 |
| 20260505024803 | 14 | 0 | 0.0 | 0.0 | 0.00 | 0.00 | 0.00 | 68 | 1016.4 |
| 20260505024404 | 14 | 0 | 0.0 | 0.0 | 0.00 | 0.00 | 0.00 | 66 | 1016.3 |
| 20260505024304 | 15 | 0 | 0.0 | 0.0 | 0.00 | 0.00 | 0.00 | 66 | 1016.3 |
| 20260505024203 | 15 | 0 | 0.0 | 0.0 | 0.00 | 0.00 | 0.00 | 66 | 1016.3 |
| 20260505024104 | 15 | 0 | 0.0 | 0.0 | 0.00 | 0.00 | 0.00 | 66 | 1016.3 |
| 20260505024004 | 15 | 0 | 0.0 | 0.0 | 0.00 | 0.00 | 0.00 | 66 | 1016.4 |
| 20260505023804 | 15 | 0 | 0.0 | 0.0 | 0.00 | 0.00 | 0.00 | 65 | 1016.3 |
| 20260505023704 | 15 | 0 | 0.0 | 0.0 | 0.00 | 0.00 | 0.00 | 64 | 1016.2 |
| 20260505023204 | 15 | 0 | 0.0 | 0.0 | 0.00 | 0.00 | 0.00 | 65 | 1016.3 |
| 20260505023103 | 15 | 0 | 0.0 | 0.0 | 0.00 | 0.00 | 0.00 | 65 | 1016.3 |
| 20260505022904 | 15 | 0 | 0.0 | 0.0 | 0.00 | 0.00 | 0.00 | 65 | 1016.3 |
| 20260505022504 | 15 | 0 | 0.0 | 0.0 | 0.00 | 0.00 | 0.00 | 64 | 1016.2 |
| 20260505022304 | 15 | 0 | 0.0 | 0.0 | 0.00 | 0.00 | 0.00 | 64 | 1016.2 |
| 20260505022104 | 15 | 0 | 0.0 | 0.0 | 0.00 | 0.00 | 0.00 | 64 | 1016.1 |
| 20260505021904 | 15 | 0 | 0.0 | 0.0 | 0.00 | 0.00 | 0.00 | 64 | 1016.2 |
| 20260505021804 | 15 | 0 | 0.0 | 0.0 | 0.00 | 0.00 | 0.00 | 64 | 1016.2 |
| 20260505021703 | 15 | 0 | 0.0 | 0.0 | 0.00 | 0.00 | 0.00 | 64 | 1016.1 |
| 20260505021504 | 15 | 0 | 0.0 | 0.0 | 0.00 | 0.00 | 0.00 | 64 | 1016.2 |
| 20260505020804 | 15 | 0 | 0.0 | 0.0 | 0.00 | 0.00 | 0.00 | 65 | 1016.2 |
| 20260505020703 | 15 | 0 | 0.0 | 0.0 | 0.00 | 0.00 | 0.00 | 65 | 1016.2 |
| 20260505020604 | 15 | 0 | 0.0 | 0.0 | 0.00 | 0.00 | 0.00 | 65 | 1016.1 |
| 20260505020304 | 15 | 0 | 0.0 | 0.0 | 0.00 | 0.00 | 0.00 | 65 | 1016.1 |
| 20260505020204 | 15 | 0 | 0.0 | 0.0 | 0.00 | 0.00 | 0.00 | 65 | 1016.1 |
| 20260505020104 | 15 | 0 | 0.0 | 0.0 | 0.00 | 0.00 | 0.00 | 65 | 1016.1 |
| 20260505015304 | 15 | 0 | 0.0 | 0.0 | 0.00 | 0.00 | 0.00 | 64 | 1015.9 |
| 20260505015204 | 15 | 0 | 0.0 | 0.0 | 0.00 | 0.00 | 0.00 | 64 | 1016.0 |
| 20260505015103 | 15 | 0 | 0.0 | 0.0 | 0.00 | 0.00 | 0.00 | 64 | 1016.0 |
| 20260505014904 | 15 | 0 | 0.0 | 0.0 | 0.00 | 0.00 | 0.00 | 64 | 1016.0 |
| 20260505014804 | 15 | 0 | 0.0 | 0.0 | 0.00 | 0.00 | 0.00 | 63 | 1015.8 |
| 20260505014704 | 15 | 0 | 0.0 | 0.0 | 0.00 | 0.00 | 0.00 | 64 | 1015.9 |
| 20260505014604 | 15 | 0 | 0.0 | 0.0 | 0.00 | 0.00 | 0.00 | 64 | 1015.9 |
| 20260505014503 | 15 | 0 | 0.0 | 0.0 | 0.00 | 0.00 | 0.00 | 63 | 1015.9 |
| 20260505014404 | 15 | 0 | 0.0 | 0.0 | 0.00 | 0.00 | 0.00 | 64 | 1015.9 |
| 20260505014304 | 15 | 0 | 0.0 | 0.0 | 0.00 | 0.00 | 0.00 | 63 | 1015.8 |
| 20260505014203 | 15 | 0 | 0.0 | 0.0 | 0.00 | 0.00 | 0.00 | 63 | 1015.9 |
| 20260505014104 | 15 | 0 | 0.0 | 0.0 | 0.00 | 0.00 | 0.00 | 63 | 1015.8 |
| 20260505013803 | 16 | 0 | 0.0 | 0.0 | 0.00 | 0.00 | 0.00 | 63 | 1015.9 |
| 20260505013704 | 16 | 0 | 0.0 | 0.0 | 0.00 | 0.00 | 0.00 | 63 | 1015.8 |
| 20260505013504 | 16 | 0 | 0.0 | 0.0 | 0.00 | 0.00 | 0.00 | 63 | 1015.9 |
| 20260505013103 | 16 | 0 | 0.0 | 0.0 | 0.00 | 0.00 | 0.00 | 62 | 1015.9 |
| 20260505012804 | 16 | 0 | 0.0 | 0.0 | 0.00 | 0.00 | 0.00 | 62 | 1015.9 |
| 20260505012404 | 16 | 0 | 0.0 | 0.0 | 0.00 | 0.00 | 0.00 | 62 | 1015.8 |
| 20260505012304 | 16 | 0 | 0.0 | 0.0 | 0.00 | 0.00 | 0.00 | 61 | 1015.8 |
| 20260505012104 | 16 | 0 | 0.0 | 0.0 | 0.00 | 0.00 | 0.00 | 61 | 1015.8 |
| 20260505011904 | 16 | 0 | 0.0 | 0.0 | 0.00 | 0.00 | 0.00 | 61 | 1015.8 |
| 20260505011503 | 16 | 0 | 0.0 | 0.0 | 0.00 | 0.00 | 0.00 | 62 | 1015.8 |
| 20260505011104 | 16 | 0 | 0.0 | 0.0 | 0.00 | 0.00 | 0.00 | 63 | 1015.8 |
| 20260505010604 | 16 | 0 | 0.0 | 0.0 | 0.00 | 0.00 | 0.00 | 62 | 1015.8 |
| 20260505010504 | 16 | 0 | 0.0 | 0.0 | 0.00 | 0.00 | 0.00 | 62 | 1015.8 |
| 20260505010304 | 16 | 0 | 0.0 | 0.0 | 0.00 | 0.00 | 0.00 | 62 | 1015.7 |
| 20260505010104 | 16 | 0 | 0.0 | 0.0 | 0.00 | 0.00 | 0.00 | 62 | 1015.7 |
| 20260505010004 | 16 | 0 | 0.0 | 0.0 | 0.00 | 0.00 | 0.00 | 63 | 1015.5 |
| 20260505005804 | 16 | 0 | 0.0 | 0.0 | 0.00 | 0.00 | 0.00 | 63 | 1015.6 |
| 20260505005703 | 16 | 0 | 0.0 | 0.0 | 0.00 | 0.00 | 0.00 | 62 | 1015.5 |
| 20260505005604 | 16 | 0 | 0.0 | 0.0 | 0.00 | 0.00 | 0.00 | 62 | 1015.5 |
| 20260505005504 | 16 | 0 | 0.0 | 0.0 | 0.00 | 0.00 | 0.00 | 62 | 1015.5 |
| 20260505005203 | 16 | 0 | 0.0 | 0.0 | 0.00 | 0.00 | 0.00 | 63 | 1015.4 |
| 20260505005004 | 16 | 0 | 0.0 | 0.0 | 0.00 | 0.00 | 0.00 | 63 | 1015.4 |
| 20260505004704 | 16 | 0 | 0.0 | 0.0 | 0.00 | 0.00 | 0.00 | 63 | 1015.5 |
| 20260505004503 | 17 | 0 | 0.0 | 0.0 | 0.00 | 0.00 | 0.00 | 62 | 1015.5 |
| 20260505004403 | 17 | 0 | 0.0 | 0.0 | 0.00 | 0.00 | 0.00 | 62 | 1015.5 |
| 20260505004204 | 17 | 0 | 0.0 | 0.0 | 0.00 | 0.00 | 0.00 | 62 | 1015.5 |
| 20260505003903 | 17 | 0 | 0.0 | 0.0 | 0.00 | 0.00 | 0.00 | 63 | 1015.4 |
| 20260505003704 | 17 | 0 | 0.0 | 0.0 | 0.00 | 0.00 | 0.00 | 63 | 1015.4 |
| 20260505003603 | 17 | 0 | 0.0 | 0.0 | 0.00 | 0.00 | 0.00 | 63 | 1015.4 |
| 20260505003404 | 17 | 0 | 0.0 | 0.0 | 0.00 | 0.00 | 0.00 | 64 | 1015.3 |
| 20260505003004 | 17 | 0 | 0.0 | 0.0 | 0.00 | 0.00 | 0.00 | 64 | 1015.3 |
| 20260505002804 | 17 | 0 | 0.0 | 0.0 | 0.00 | 0.00 | 0.00 | 63 | 1015.3 |
| 20260505002603 | 17 | 0 | 0.0 | 0.0 | 0.00 | 0.00 | 0.00 | 63 | 1015.3 |
| 20260505002404 | 17 | 0 | 0.0 | 0.0 | 0.00 | 0.00 | 0.00 | 64 | 1015.3 |
| 20260505002204 | 17 | 0 | 0.0 | 0.0 | 0.00 | 0.00 | 0.00 | 64 | 1015.4 |
| 20260505002104 | 17 | 0 | 0.0 | 0.0 | 0.00 | 0.00 | 0.00 | 64 | 1015.4 |
| 20260505002004 | 17 | 0 | 0.0 | 0.0 | 0.00 | 0.00 | 0.00 | 62 | 1015.3 |
| 20260505001903 | 17 | 0 | 0.0 | 0.0 | 0.00 | 0.00 | 0.00 | 61 | 1015.2 |
| 20260505001804 | 18 | 0 | 0.0 | 0.0 | 0.00 | 0.00 | 0.00 | 61 | 1015.3 |
| 20260505001504 | 18 | 0 | 0.0 | 0.0 | 0.00 | 0.00 | 0.00 | 61 | 1015.2 |
| 20260505000904 | 18 | 0 | 0.0 | 0.0 | 0.00 | 0.00 | 0.00 | 64 | 1015.3 |
| 20260505000804 | 18 | 0 | 0.0 | 0.0 | 0.00 | 0.00 | 0.00 | 62 | 1015.3 |
| 20260505000704 | 18 | 0 | 0.0 | 0.0 | 0.00 | 0.00 | 0.00 | 63 | 1015.3 |
| 20260505000503 | 18 | 351 | 0.0 | 1.6 | 0.00 | 0.00 | 0.00 | 61 | 1015.2 |
| 20260505000204 | 18 | 350 | 0.0 | 1.6 | 0.00 | 0.00 | 0.00 | 58 | 1015.1 |
| 20260505000004 | 18 | 350 | 0.0 | 1.6 | 0.00 | 0.00 | 0.00 | 59 | 1015.1 |
| 20260504235604 | 19 | 350 | 0.0 | 1.6 | 0.00 | 0.00 | 0.00 | 59 | 1015.2 |
| 20260504235504 | 19 | 350 | 0.0 | 1.6 | 0.00 | 0.00 | 0.00 | 59 | 1015.1 |
| 20260504235404 | 19 | 351 | 0.0 | 1.6 | 0.00 | 0.00 | 0.00 | 56 | 1015.0 |
| 20260504235304 | 19 | 351 | 0.0 | 1.6 | 0.00 | 0.00 | 0.00 | 56 | 1015.0 |
| 20260504235104 | 20 | 352 | 0.0 | 1.6 | 0.00 | 0.00 | 0.00 | 60 | 1015.1 |
| 20260504235004 | 20 | 353 | 0.0 | 1.6 | 0.00 | 0.00 | 0.00 | 60 | 1015.0 |
| 20260504234605 | 20 | 354 | 0.0 | 3.2 | 0.00 | 0.00 | 0.00 | 55 | 1014.9 |
| 20260504234404 | 20 | 354 | 0.0 | 3.2 | 0.00 | 0.00 | 0.00 | 58 | 1015.0 |
| 20260504234204 | 20 | 354 | 0.0 | 3.2 | 0.00 | 0.00 | 0.00 | 55 | 1014.9 |
| 20260504234103 | 20 | 355 | 0.0 | 3.2 | 0.00 | 0.00 | 0.00 | 56 | 1015.0 |
| 20260504233804 | 20 | 355 | 0.0 | 3.2 | 0.00 | 0.00 | 0.00 | 59 | 1015.0 |
| 20260504233603 | 20 | 0 | 0.0 | 0.0 | 0.00 | 0.00 | 0.00 | 56 | 1015.0 |
| 20260504233404 | 20 | 0 | 0.0 | 0.0 | 0.00 | 0.00 | 0.00 | 61 | 1015.0 |
| 20260504233003 | 20 | 355 | 0.0 | 3.2 | 0.00 | 0.00 | 0.00 | 61 | 1015.0 |
| 20260504232704 | 19 | 354 | 0.0 | 4.8 | 0.00 | 0.00 | 0.00 | 57 | 1014.9 |
| 20260504232503 | 19 | 354 | 0.0 | 4.8 | 0.00 | 0.00 | 0.00 | 64 | 1015.0 |
| 20260504232203 | 19 | 354 | 0.0 | 4.8 | 0.00 | 0.00 | 0.00 | 60 | 1014.9 |
| 20260504232104 | 19 | 354 | 0.0 | 4.8 | 0.00 | 0.00 | 0.00 | 60 | 1015.0 |
| 20260504231804 | 19 | 9 | 0.0 | 4.8 | 0.00 | 0.00 | 0.00 | 61 | 1015.0 |
| 20260504231604 | 19 | 46 | 0.0 | 6.4 | 0.00 | 0.00 | 0.00 | 61 | 1015.0 |
| 20260504231404 | 20 | 46 | 0.0 | 6.4 | 0.00 | 0.00 | 0.00 | 60 | 1015.0 |
| 20260504231104 | 20 | 46 | 0.0 | 6.4 | 0.00 | 0.00 | 0.00 | 59 | 1015.0 |
| 20260504230904 | 20 | 46 | 0.0 | 6.4 | 0.00 | 0.00 | 0.00 | 56 | 1014.8 |
| 20260504230504 | 20 | 47 | 0.0 | 6.4 | 0.00 | 0.00 | 0.00 | 61 | 1014.9 |
| 20260504230404 | 20 | 48 | 0.0 | 6.4 | 0.00 | 0.00 | 0.00 | 62 | 1014.9 |
| 20260504230303 | 20 | 48 | 0.0 | 6.4 | 0.00 | 0.00 | 0.00 | 59 | 1014.9 |
| 20260504230204 | 20 | 48 | 0.0 | 6.4 | 0.00 | 0.00 | 0.00 | 58 | 1014.9 |
| 20260504225804 | 20 | 43 | 0.0 | 6.4 | 0.00 | 0.00 | 0.00 | 63 | 1014.7 |
| 20260504225403 | 20 | 31 | 0.0 | 4.8 | 0.00 | 0.00 | 0.00 | 58 | 1014.7 |
| 20260504225004 | 20 | 29 | 0.0 | 4.8 | 0.00 | 0.00 | 0.00 | 58 | 1014.7 |
| 20260504224905 | 20 | 25 | 0.0 | 4.8 | 0.00 | 0.00 | 0.00 | 60 | 1014.8 |
| 20260504224703 | 20 | 24 | 0.0 | 4.8 | 0.00 | 0.00 | 0.00 | 56 | 1014.8 |
| 20260504224603 | 20 | 24 | 0.0 | 4.8 | 0.00 | 0.00 | 0.00 | 54 | 1014.7 |
| 20260504224504 | 20 | 24 | 0.0 | 4.8 | 0.00 | 0.00 | 0.00 | 56 | 1014.8 |
| 20260504224304 | 21 | 16 | 0.0 | 3.2 | 0.00 | 0.00 | 0.00 | 58 | 1014.8 |
| 20260504224103 | 21 | 22 | 0.0 | 3.2 | 0.00 | 0.00 | 0.00 | 56 | 1014.8 |
| 20260504223904 | 21 | 31 | 0.0 | 3.2 | 0.00 | 0.00 | 0.00 | 54 | 1014.8 |
| 20260504223804 | 21 | 60 | 0.0 | 3.2 | 0.00 | 0.00 | 0.00 | 55 | 1014.8 |
| 20260504223704 | 21 | 70 | 0.0 | 3.2 | 0.00 | 0.00 | 0.00 | 65 | 1014.9 |
| 20260504223604 | 21 | 70 | 0.0 | 3.2 | 0.00 | 0.00 | 0.00 | 63 | 1014.8 |
| 20260504223505 | 21 | 70 | 0.0 | 3.2 | 0.00 | 0.00 | 0.00 | 59 | 1014.7 |
| 20260504223404 | 21 | 70 | 0.0 | 3.2 | 0.00 | 0.00 | 0.00 | 58 | 1014.7 |
| 20260504223303 | 21 | 67 | 0.0 | 6.4 | 0.00 | 0.00 | 0.00 | 60 | 1014.8 |
| 20260504222904 | 21 | 58 | 0.0 | 6.4 | 0.00 | 0.00 | 0.00 | 53 | 1014.9 |
| 20260504222804 | 22 | 51 | 0.0 | 6.4 | 0.00 | 0.00 | 0.00 | 55 | 1014.9 |
| 20260504222604 | 22 | 51 | 0.0 | 6.4 | 0.00 | 0.00 | 0.00 | 50 | 1014.9 |
| 20260504222403 | 22 | 49 | 0.0 | 6.4 | 0.00 | 0.00 | 0.00 | 50 | 1014.9 |
| 20260504222305 | 22 | 11 | 0.0 | 4.8 | 0.00 | 0.00 | 0.00 | 52 | 1015.0 |
| 20260504222103 | 22 | 0 | 0.0 | 0.0 | 0.00 | 0.00 | 0.00 | 60 | 1015.1 |
| 20260504222004 | 22 | 0 | 0.0 | 0.0 | 0.00 | 0.00 | 0.00 | 58 | 1015.0 |
| 20260504221904 | 22 | 0 | 0.0 | 0.0 | 0.00 | 0.00 | 0.00 | 60 | 1015.1 |
| 20260504221604 | 22 | 0 | 0.0 | 0.0 | 0.00 | 0.00 | 0.00 | 62 | 1015.0 |
| 20260504221403 | 21 | 0 | 0.0 | 0.0 | 0.00 | 0.00 | 0.00 | 60 | 1015.1 |
| 20260504221304 | 21 | 0 | 0.0 | 0.0 | 0.00 | 0.00 | 0.00 | 63 | 1015.1 |
| 20260504221104 | 21 | 0 | 0.0 | 0.0 | 0.00 | 0.00 | 0.00 | 56 | 1015.0 |
| 20260504221004 | 21 | 0 | 0.0 | 0.0 | 0.00 | 0.00 | 0.00 | 62 | 1015.1 |
| 20260504220804 | 21 | 324 | 0.0 | 1.6 | 0.00 | 0.00 | 0.00 | 56 | 1014.9 |
| 20260504220703 | 21 | 324 | 0.0 | 1.6 | 0.00 | 0.00 | 0.00 | 55 | 1014.9 |
| 20260504220304 | 22 | 302 | 1.6 | 1.6 | 0.00 | 0.00 | 0.00 | 58 | 1015.0 |
| 20260504220204 | 22 | 294 | 1.6 | 3.2 | 0.00 | 0.00 | 0.00 | 51 | 1014.8 |
| 20260504220004 | 23 | 291 | 1.6 | 11.3 | 0.00 | 0.00 | 0.00 | 53 | 1014.6 |
| 20260504215903 | 23 | 290 | 1.6 | 11.3 | 0.00 | 0.00 | 0.00 | 53 | 1014.7 |
| 20260504215804 | 23 | 290 | 1.6 | 11.3 | 0.00 | 0.00 | 0.00 | 50 | 1014.7 |
| 20260504215704 | 23 | 289 | 1.6 | 11.3 | 0.00 | 0.00 | 0.00 | 55 | 1014.7 |
| 20260504215604 | 22 | 289 | 1.6 | 11.3 | 0.00 | 0.00 | 0.00 | 51 | 1014.7 |
| 20260504215404 | 22 | 289 | 1.6 | 11.3 | 0.00 | 0.00 | 0.00 | 46 | 1014.6 |
| 20260504215204 | 22 | 289 | 1.6 | 11.3 | 0.00 | 0.00 | 0.00 | 49 | 1014.6 |
| 20260504215104 | 22 | 288 | 1.6 | 11.3 | 0.00 | 0.00 | 0.00 | 53 | 1014.6 |
| 20260504214704 | 22 | 296 | 1.6 | 8.0 | 0.00 | 0.00 | 0.00 | 51 | 1014.7 |
| 20260504214504 | 22 | 297 | 1.6 | 8.0 | 0.00 | 0.00 | 0.00 | 49 | 1014.7 |
| 20260504214404 | 22 | 297 | 1.6 | 8.0 | 0.00 | 0.00 | 0.00 | 50 | 1014.7 |
| 20260504214203 | 22 | 294 | 1.6 | 8.0 | 0.00 | 0.00 | 0.00 | 45 | 1014.7 |
| 20260504213903 | 22 | 288 | 1.6 | 9.7 | 0.00 | 0.00 | 0.00 | 49 | 1014.8 |
| 20260504213603 | 22 | 282 | 1.6 | 11.3 | 0.00 | 0.00 | 0.00 | 48 | 1014.7 |
| 20260504213203 | 23 | 276 | 1.6 | 11.3 | 0.00 | 0.00 | 0.00 | 46 | 1014.6 |
| 20260504213104 | 23 | 274 | 1.6 | 11.3 | 0.00 | 0.00 | 0.00 | 51 | 1014.7 |
| 20260504213004 | 23 | 276 | 1.6 | 11.3 | 0.00 | 0.00 | 0.00 | 47 | 1014.6 |
| 20260504212903 | 23 | 276 | 1.6 | 11.3 | 0.00 | 0.00 | 0.00 | 48 | 1014.7 |
| 20260504212805 | 23 | 269 | 1.6 | 6.4 | 0.00 | 0.00 | 0.00 | 46 | 1014.7 |
| 20260504212404 | 23 | 282 | 1.6 | 6.4 | 0.00 | 0.00 | 0.00 | 48 | 1014.7 |
| 20260504212103 | 23 | 295 | 1.6 | 6.4 | 0.00 | 0.00 | 0.00 | 48 | 1014.8 |
| 20260504212004 | 23 | 293 | 1.6 | 6.4 | 0.00 | 0.00 | 0.00 | 47 | 1014.7 |
| 20260504211704 | 23 | 288 | 1.6 | 9.7 | 0.00 | 0.00 | 0.00 | 53 | 1014.8 |
| 20260504211603 | 23 | 290 | 1.6 | 12.9 | 0.00 | 0.00 | 0.00 | 50 | 1014.8 |
| 20260504211504 | 23 | 289 | 1.6 | 12.9 | 0.00 | 0.00 | 0.00 | 53 | 1014.8 |
| 20260504211204 | 22 | 286 | 1.6 | 12.9 | 0.00 | 0.00 | 0.00 | 50 | 1014.7 |
| 20260504211103 | 22 | 285 | 1.6 | 12.9 | 0.00 | 0.00 | 0.00 | 46 | 1014.6 |
| 20260504210904 | 22 | 277 | 1.6 | 12.9 | 0.00 | 0.00 | 0.00 | 49 | 1014.8 |
| 20260504210804 | 22 | 276 | 1.6 | 12.9 | 0.00 | 0.00 | 0.00 | 44 | 1014.7 |
| 20260504210604 | 23 | 261 | 1.6 | 6.4 | 0.00 | 0.00 | 0.00 | 48 | 1014.7 |
| 20260504210504 | 23 | 260 | 1.6 | 6.4 | 0.00 | 0.00 | 0.00 | 46 | 1014.7 |
| 20260504210403 | 23 | 259 | 1.6 | 6.4 | 0.00 | 0.00 | 0.00 | 45 | 1014.7 |
| 20260504210304 | 23 | 255 | 1.6 | 6.4 | 0.00 | 0.00 | 0.00 | 42 | 1014.7 |
| 20260504210004 | 23 | 251 | 1.6 | 6.4 | 0.00 | 0.00 | 0.00 | 45 | 1014.8 |
| 20260504205903 | 23 | 249 | 1.6 | 6.4 | 0.00 | 0.00 | 0.00 | 46 | 1014.8 |
| 20260504205703 | 23 | 243 | 1.6 | 6.4 | 0.00 | 0.00 | 0.00 | 44 | 1014.8 |
| 20260504205504 | 23 | 247 | 1.6 | 4.8 | 0.00 | 0.00 | 0.00 | 45 | 1014.8 |
| 20260504205204 | 23 | 277 | 1.6 | 4.8 | 0.00 | 0.00 | 0.00 | 46 | 1014.9 |
| 20260504204904 | 23 | 276 | 1.6 | 9.7 | 0.00 | 0.00 | 0.00 | 48 | 1014.9 |
| 20260504204703 | 23 | 285 | 1.6 | 11.3 | 0.00 | 0.00 | 0.00 | 54 | 1015.0 |
| 20260504204403 | 22 | 280 | 1.6 | 11.3 | 0.00 | 0.00 | 0.00 | 49 | 1015.0 |
| 20260504204203 | 22 | 281 | 1.6 | 11.3 | 0.00 | 0.00 | 0.00 | 47 | 1014.9 |
| 20260504204104 | 22 | 281 | 1.6 | 11.3 | 0.00 | 0.00 | 0.00 | 42 | 1014.9 |
| 20260504204004 | 22 | 284 | 1.6 | 11.3 | 0.00 | 0.00 | 0.00 | 44 | 1014.9 |
| 20260504203804 | 22 | 283 | 1.6 | 11.3 | 0.00 | 0.00 | 0.00 | 42 | 1014.9 |
| 20260504203704 | 22 | 284 | 1.6 | 11.3 | 0.00 | 0.00 | 0.00 | 45 | 1014.9 |
| 20260504203603 | 22 | 287 | 1.6 | 11.3 | 0.00 | 0.00 | 0.00 | 44 | 1014.9 |
| 20260504203304 | 23 | 289 | 0.0 | 11.3 | 0.00 | 0.00 | 0.00 | 43 | 1014.9 |
| 20260504203103 | 23 | 290 | 0.0 | 11.3 | 0.00 | 0.00 | 0.00 | 41 | 1015.0 |
| 20260504203004 | 23 | 290 | 0.0 | 11.3 | 0.00 | 0.00 | 0.00 | 45 | 1015.0 |
| 20260504202903 | 23 | 298 | 0.0 | 8.0 | 0.00 | 0.00 | 0.00 | 41 | 1015.0 |
| 20260504202804 | 23 | 304 | 0.0 | 8.0 | 0.00 | 0.00 | 0.00 | 42 | 1015.0 |
| 20260504202503 | 24 | 86 | 0.0 | 1.6 | 0.00 | 0.00 | 0.00 | 51 | 1015.2 |
| 20260504202404 | 23 | 86 | 0.0 | 1.6 | 0.00 | 0.00 | 0.00 | 55 | 1015.2 |
| 20260504202204 | 23 | 88 | 0.0 | 3.2 | 0.00 | 0.00 | 0.00 | 49 | 1015.1 |
| 20260504202004 | 23 | 90 | 0.0 | 3.2 | 0.00 | 0.00 | 0.00 | 60 | 1015.3 |
| 20260504201904 | 23 | 91 | 0.0 | 3.2 | 0.00 | 0.00 | 0.00 | 49 | 1015.2 |
| 20260504200904 | 23 | 323 | 1.6 | 6.4 | 0.00 | 0.00 | 0.00 | 45 | 1015.4 |